createdAt,value
2022-12-23T00:02:33.984Z,252.10
2022-12-23T00:07:34.090Z,232.90
2022-12-23T00:12:33.259Z,220.80
2022-12-23T00:17:33.383Z,212.60
2022-12-23T00:22:32.541Z,200.00
2022-12-23T00:27:37.191Z,186.40
2022-12-23T00:32:29.969Z,181.60
2022-12-23T00:37:30.272Z,156.70
2022-12-23T00:42:27.577Z,150.60
2022-12-23T00:47:28.846Z,141.10
2022-12-23T00:52:28.193Z,128.80
2022-12-23T00:57:25.466Z,115.80
2022-12-23T01:02:25.926Z,112.70
2022-12-23T01:07:24.944Z,104.20
2022-12-23T01:12:24.234Z,97.90
2022-12-23T01:17:23.749Z,89.20
2022-12-23T01:22:24.754Z,83.90
2022-12-23T01:27:23.026Z,77.80
2022-12-23T01:32:21.338Z,73.10
2022-12-23T01:37:20.659Z,67.20
2022-12-23T01:42:21.978Z,63.10
2022-12-23T01:47:19.269Z,58.30
2022-12-23T01:52:18.580Z,55.30
2022-12-23T01:57:18.847Z,50.30
2022-12-23T02:02:17.293Z,48.50
2022-12-23T02:07:17.264Z,46.80
2022-12-23T02:12:16.556Z,44.60
2022-12-23T02:17:14.983Z,42.60
2022-12-23T02:22:15.103Z,39.90
2022-12-23T02:27:13.392Z,36.30
2022-12-23T02:32:12.720Z,35.80
2022-12-23T02:37:11.989Z,34.10
2022-12-23T02:42:10.257Z,33.50
2022-12-23T02:47:11.564Z,31.10
2022-12-23T02:52:10.845Z,28.70
2022-12-23T02:57:09.128Z,29.10
2022-12-23T03:02:08.592Z,27.20
2022-12-23T03:07:11.427Z,27.30
2022-12-23T03:12:06.716Z,24.80
2022-12-23T03:17:07.008Z,25.50
2022-12-23T03:22:08.299Z,23.10
2022-12-23T03:27:04.612Z,22.70
2022-12-23T03:32:03.910Z,21.40
2022-12-23T03:37:03.212Z,20.40
2022-12-23T03:42:03.496Z,21.30
2022-12-23T03:47:01.834Z,19.30
2022-12-23T03:52:03.971Z,18.30
2022-12-23T03:57:02.260Z,16.80
2022-12-23T04:01:59.615Z,17.10
2022-12-23T04:06:58.743Z,15.70
2022-12-23T04:11:58.059Z,15.70
2022-12-23T04:16:57.370Z,14.10
2022-12-23T04:21:56.694Z,14.10
2022-12-23T04:26:57.033Z,13.20
2022-12-23T04:31:55.270Z,12.90
2022-12-23T04:36:55.433Z,11.50
2022-12-23T04:41:54.751Z,11.70
2022-12-23T04:46:53.131Z,10.40
2022-12-23T04:51:52.300Z,11.00
2022-12-23T04:56:51.641Z,10.30
2022-12-23T05:01:51.074Z,9.30
2022-12-23T05:06:52.096Z,8.60
2022-12-23T05:11:49.375Z,8.60
2022-12-23T05:16:48.737Z,8.30
2022-12-23T05:21:49.829Z,8.60
2022-12-23T05:26:48.070Z,8.60
2022-12-23T05:31:48.525Z,7.60
2022-12-23T05:36:45.746Z,7.30
2022-12-23T05:41:46.830Z,6.50
2022-12-23T05:46:44.279Z,6.90
2022-12-23T05:51:43.456Z,6.90
2022-12-23T05:56:43.797Z,6.00
2022-12-23T06:01:42.012Z,5.80
2022-12-23T06:06:41.212Z,5.00
2022-12-23T06:11:40.336Z,5.20
2022-12-23T06:16:39.539Z,5.40
2022-12-23T06:21:38.748Z,4.80
2022-12-23T06:26:37.888Z,4.70
2022-12-23T06:31:37.250Z,4.60
2022-12-23T06:36:36.305Z,4.50
2022-12-23T06:41:36.657Z,4.90
2022-12-23T06:46:37.804Z,4.30
2022-12-23T06:51:36.132Z,4.20
2022-12-23T06:56:34.431Z,4.50
2022-12-23T07:01:33.863Z,4.00
2022-12-23T07:06:32.057Z,3.60
2022-12-23T07:11:32.382Z,4.20
2022-12-23T07:16:32.756Z,4.30
2022-12-23T07:21:30.912Z,4.30
2022-12-23T07:26:30.200Z,3.90
2022-12-23T07:31:28.698Z,4.00
2022-12-23T07:36:28.846Z,4.00
2022-12-23T07:41:27.141Z,4.40
2022-12-23T07:46:26.539Z,4.10
2022-12-23T07:51:22.359Z,6.30
2022-12-23T07:56:24.924Z,3.80
2022-12-23T08:01:24.116Z,4.20
2022-12-23T08:06:23.237Z,4.60
2022-12-23T08:11:22.638Z,3.80
2022-12-23T08:16:22.787Z,3.90
2022-12-23T08:21:22.122Z,4.80
2022-12-23T08:26:21.244Z,4.50
2022-12-23T08:31:20.648Z,5.50
2022-12-23T08:36:23.003Z,4.90
2022-12-23T08:41:18.093Z,3.80
2022-12-23T08:46:17.446Z,4.10
2022-12-23T08:51:17.562Z,5.00
2022-12-23T08:56:15.681Z,5.20
2022-12-23T09:01:14.983Z,4.90
2022-12-23T09:06:15.287Z,4.50
2022-12-23T09:11:14.653Z,3.70
2022-12-23T09:16:13.780Z,3.20
2022-12-23T09:21:11.918Z,3.60
2022-12-23T09:26:12.212Z,5.30
2022-12-23T09:31:12.599Z,3.30
2022-12-23T09:36:09.747Z,2.80
2022-12-23T09:41:09.087Z,3.40
2022-12-23T09:46:08.439Z,3.50
2022-12-23T09:51:07.556Z,4.20
2022-12-23T09:56:06.860Z,3.70
2022-12-23T10:01:07.155Z,3.40
2022-12-23T10:06:05.508Z,2.70
2022-12-23T10:11:04.641Z,2.50
2022-12-23T10:16:04.012Z,2.70
2022-12-23T10:21:03.133Z,2.10
2022-12-23T10:26:03.429Z,2.50
2022-12-23T10:36:01.127Z,2.40
2022-12-23T10:41:05.342Z,1.60
2022-12-23T10:45:59.623Z,2.20
2022-12-23T10:50:58.941Z,2.20
2022-12-23T10:55:58.268Z,1.70
2022-12-23T11:00:58.597Z,2.00
2022-12-23T11:05:56.696Z,2.40
2022-12-23T11:10:56.053Z,1.80
2022-12-23T11:15:57.237Z,2.00
2022-12-23T11:20:54.306Z,1.80
2022-12-23T11:25:54.605Z,2.40
2022-12-23T11:30:56.239Z,1.80
2022-12-23T11:35:53.222Z,1.50
2022-12-23T11:40:52.531Z,2.00
2022-12-23T11:45:50.850Z,1.50
2022-12-23T11:50:49.957Z,2.20
2022-12-23T11:55:48.249Z,1.90
2022-12-23T12:00:55.138Z,1.30
2022-12-23T12:05:47.725Z,1.50
2022-12-23T12:10:46.862Z,1.20
2022-12-23T12:15:46.158Z,1.40
2022-12-23T12:20:45.445Z,1.60
2022-12-23T12:25:44.751Z,1.00
2022-12-23T12:30:45.128Z,1.90
2022-12-23T12:35:43.233Z,0.90
2022-12-23T12:40:42.541Z,1.20
2022-12-23T12:45:41.892Z,1.00
2022-12-23T12:50:44.207Z,1.10
2022-12-23T12:55:41.296Z,0.70
2022-12-23T13:00:39.567Z,1.50
2022-12-23T13:05:38.918Z,1.30
2022-12-23T13:10:38.045Z,0.70
2022-12-23T13:15:39.347Z,1.20
2022-12-23T13:20:36.637Z,2.00
2022-12-23T13:25:34.969Z,7.30
2022-12-23T13:30:35.356Z,2.10
2022-12-23T13:35:33.453Z,1.80
2022-12-23T13:40:32.769Z,1.40
2022-12-23T13:45:33.085Z,1.50
2022-12-23T13:50:32.386Z,1.60
2022-12-23T13:55:32.717Z,1.40
2022-12-23T14:00:32.011Z,5.90
2022-12-23T14:05:30.371Z,1.90
2022-12-23T14:10:29.477Z,1.60
2022-12-23T14:15:28.861Z,0.80
2022-12-23T14:20:27.960Z,0.60
2022-12-23T14:25:28.286Z,0.80
2022-12-23T14:30:26.607Z,0.60
2022-12-23T14:35:26.929Z,1.00
2022-12-23T14:40:25.295Z,1.10
2022-12-23T14:45:24.446Z,1.80
2022-12-23T14:50:25.779Z,1.50
2022-12-23T14:55:31.278Z,2.10
2022-12-23T15:00:23.314Z,0.40
2022-12-23T15:05:23.818Z,0.80
2022-12-23T15:10:22.710Z,1.20
2022-12-23T15:15:22.040Z,0.50
2022-12-23T15:20:19.342Z,0.70
2022-12-23T15:25:18.671Z,0.70
2022-12-23T15:30:17.964Z,0.80
2022-12-23T15:35:17.260Z,0.80
2022-12-23T15:40:17.608Z,0.60
2022-12-23T15:45:16.721Z,1.20
2022-12-23T15:50:16.075Z,0.30
2022-12-23T15:55:14.207Z,0.60
2022-12-23T16:00:13.547Z,1.00
2022-12-23T16:05:12.687Z,0.60
2022-12-23T16:10:11.850Z,0.70
2022-12-23T16:15:10.952Z,1.00
2022-12-23T16:20:12.277Z,0.70
2022-12-23T16:25:09.597Z,0.90
2022-12-23T16:30:09.952Z,0.50
2022-12-23T16:35:10.126Z,0.60
2022-12-23T16:40:07.234Z,0.90
2022-12-23T16:45:07.536Z,0.70
2022-12-23T16:50:06.853Z,0.60
2022-12-23T16:55:09.478Z,0.90
2022-12-23T17:00:04.355Z,1.60
2022-12-23T17:05:04.667Z,1.90
2022-12-23T17:10:02.988Z,3.00
2022-12-23T17:15:03.327Z,1.90
2022-12-23T17:20:02.653Z,2.10
2022-12-23T17:25:01.958Z,1.50
2022-12-23T17:30:02.125Z,1.50
2022-12-23T17:34:59.464Z,2.50
2022-12-23T17:40:00.607Z,2.40
2022-12-23T17:44:58.747Z,3.00
2022-12-23T17:49:57.079Z,13.10
2022-12-23T17:54:57.402Z,16.00
2022-12-23T17:59:55.706Z,17.60
2022-12-23T18:04:56.022Z,59.50
2022-12-23T18:09:55.322Z,142.60
2022-12-23T18:14:53.642Z,149.80
2022-12-23T18:19:52.997Z,123.80
2022-12-23T18:24:58.910Z,113.50
2022-12-23T18:29:51.279Z,105.90
2022-12-23T18:34:50.565Z,96.10
2022-12-23T18:39:49.878Z,92.00
2022-12-23T18:44:49.214Z,85.50
2022-12-23T18:49:49.573Z,79.80
2022-12-23T18:54:46.790Z,75.60
2022-12-23T18:59:46.932Z,73.30
2022-12-23T19:04:46.046Z,66.60
2022-12-23T19:09:46.392Z,65.60
2022-12-23T19:14:44.740Z,53.40
2022-12-23T19:19:44.840Z,47.60
2022-12-23T19:25:04.072Z,46.30
2022-12-23T19:29:42.433Z,38.80
2022-12-23T19:34:42.554Z,37.00
2022-12-23T19:39:41.921Z,47.30
2022-12-23T19:44:40.012Z,95.20
2022-12-23T19:49:39.375Z,122.50
2022-12-23T19:54:38.609Z,212.70
2022-12-23T19:59:38.810Z,238.20
2022-12-23T20:04:36.924Z,209.40
2022-12-23T20:09:36.090Z,179.60
2022-12-23T20:14:35.391Z,158.00
2022-12-23T20:19:39.082Z,164.50
2022-12-23T20:24:34.875Z,241.40
2022-12-23T20:29:34.276Z,251.50
2022-12-23T20:34:38.574Z,257.50
2022-12-23T20:39:31.750Z,221.00
2022-12-23T20:44:36.147Z,185.10
2022-12-23T20:49:30.103Z,270.20
2022-12-23T20:54:33.259Z,303.60
2022-12-23T20:59:28.579Z,276.00
2022-12-23T21:04:27.764Z,303.20
2022-12-23T21:09:26.956Z,258.40
2022-12-23T21:14:28.143Z,241.80
2022-12-23T21:19:24.347Z,217.40
2022-12-23T21:24:24.508Z,199.90
2022-12-23T21:29:23.682Z,185.40
2022-12-23T21:34:22.868Z,171.10
2022-12-23T21:39:22.029Z,155.20
2022-12-23T21:44:22.224Z,150.30
2022-12-23T21:49:21.380Z,131.40
2022-12-23T21:54:19.540Z,123.10
2022-12-23T21:59:19.721Z,119.50
2022-12-23T22:04:17.899Z,99.90
2022-12-23T22:09:17.232Z,165.10
2022-12-23T22:14:17.306Z,74.20
2022-12-23T22:19:14.476Z,210.90
2022-12-23T22:24:15.656Z,195.70
2022-12-23T22:29:12.812Z,305.50
2022-12-23T22:34:13.002Z,253.90
2022-12-23T22:39:19.524Z,190.50
2022-12-23T22:44:12.394Z,191.00
2022-12-23T22:49:11.563Z,293.30
2022-12-23T22:54:09.755Z,282.80
2022-12-23T22:59:08.924Z,282.60
2022-12-23T23:04:08.108Z,139.20
2022-12-23T23:09:07.307Z,153.10
2022-12-23T23:14:06.558Z,126.50
2022-12-23T23:19:05.710Z,166.10
2022-12-23T23:24:06.889Z,107.60
2022-12-23T23:29:05.051Z,96.30
2022-12-23T23:34:03.344Z,141.70
2022-12-23T23:39:02.462Z,79.40
2022-12-23T23:44:01.802Z,68.00
2022-12-23T23:49:00.917Z,85.10
2022-12-23T23:54:00.232Z,53.70
2022-12-23T23:59:00.493Z,60.40
